Time;durP1;ratioP1;P1;durP2;ratioP2;P2;SDS_P1;SDS_P2;PMS_P1;PMS_P2;Temp;Humidity;BMP_temperature;BMP_pressure;BME280_temperature;BME280_humidity;BME280_pressure;Samples;Min_cycle;Max_cycle;Signal;HPM_P1;HPM_P2
2023/03/30 00:02:21;;;;;;;601.90;143.48;;;;;;;-143.29;100.00;62188.47;4897928;29;20052;-94
2023/03/30 00:04:47;;;;;;;608.88;145.05;;;;;;;-143.29;100.00;62188.47;4898017;29;20119;-95
2023/03/30 00:07:12;;;;;;;599.53;141.82;;;;;;;-143.29;100.00;62188.47;4898702;29;20056;-95
2023/03/30 00:09:41;;;;;;;599.22;141.40;;;;;;;-143.29;100.00;62188.47;4898371;29;20377;-95
2023/03/30 00:12:07;;;;;;;599.05;141.05;;;;;;;-143.29;100.00;62188.47;4898596;29;20033;-94
2023/03/30 00:14:36;;;;;;;600.53;140.00;;;;;;;-143.29;100.00;62188.47;4914031;29;20027;-94
2023/03/30 00:17:04;;;;;;;592.28;138.38;;;;;;;-143.29;100.00;62188.47;4897736;29;20149;-95
2023/03/30 00:19:30;;;;;;;594.38;138.40;;;;;;;-143.29;100.00;62188.47;4898195;29;20032;-95
2023/03/30 00:21:56;;;;;;;589.42;134.95;;;;;;;-143.29;100.00;62188.47;4898198;29;20020;-95
2023/03/30 00:24:22;;;;;;;590.72;138.07;;;;;;;-143.29;100.00;62188.47;4897909;29;20028;-94
2023/03/30 00:26:47;;;;;;;593.47;137.68;;;;;;;-143.29;100.00;62188.47;4898238;29;20088;-94
2023/03/30 00:29:13;;;;;;;589.13;138.35;;;;;;;-143.29;100.00;62188.47;4899239;29;20033;-94
2023/03/30 00:31:38;;;;;;;593.95;139.27;;;;;;;-143.29;100.00;62188.47;4897311;29;20040;-94
2023/03/30 00:34:03;;;;;;;585.42;137.38;;;;;;;-143.29;100.00;62188.47;4898114;29;20029;-96
2023/03/30 00:36:29;;;;;;;587.75;136.35;;;;;;;-143.29;100.00;62188.47;4898481;29;20033;-96
2023/03/30 00:38:55;;;;;;;588.67;134.18;;;;;;;-143.29;100.00;62188.47;4898112;29;20051;-96
2023/03/30 00:41:20;;;;;;;588.33;136.38;;;;;;;-143.29;100.00;62188.47;4897919;29;20028;-95
2023/03/30 00:44:00;;;;;;;589.28;135.98;;;;;;;-143.29;100.00;62188.47;4897912;29;20404;-95
2023/03/30 00:46:26;;;;;;;583.90;133.52;;;;;;;-143.29;100.00;62188.47;4912883;29;20183;-94
2023/03/30 00:48:56;;;;;;;582.60;134.68;;;;;;;-143.29;100.00;62188.47;4897788;29;20028;-95
2023/03/30 00:51:22;;;;;;;587.67;132.75;;;;;;;-143.29;100.00;62188.47;4898182;29;20431;-95
2023/03/30 00:53:51;;;;;;;590.92;136.38;;;;;;;-143.29;100.00;62188.47;4896741;29;20017;-94
2023/03/30 00:56:22;;;;;;;591.63;137.82;;;;;;;-143.29;100.00;62188.47;4897288;29;20024;-95
2023/03/30 00:58:48;;;;;;;588.50;137.57;;;;;;;-143.29;100.00;62188.47;4897461;29;20032;-94
2023/03/30 01:01:27;;;;;;;589.70;138.20;;;;;;;-143.29;100.00;62188.47;4896705;29;20081;-95
2023/03/30 01:03:56;;;;;;;591.15;136.20;;;;;;;-143.29;100.00;62188.47;4897187;29;20113;-95
2023/03/30 01:06:25;;;;;;;592.47;137.13;;;;;;;-143.29;100.00;62188.47;4897703;29;20029;-96
2023/03/30 01:08:56;;;;;;;586.63;135.50;;;;;;;-143.29;100.00;62188.47;4897217;29;20044;-95
2023/03/30 01:11:22;;;;;;;593.40;137.50;;;;;;;-143.29;100.00;62188.47;4897380;29;20032;-94
2023/03/30 01:13:53;;;;;;;593.53;135.13;;;;;;;-143.29;100.00;62188.47;4897308;29;20032;-95
2023/03/30 01:16:19;;;;;;;587.63;140.50;;;;;;;-143.29;100.00;62188.47;4896246;29;20037;-96
2023/03/30 01:19:08;;;;;;;592.38;138.32;;;;;;;-143.29;100.00;62188.47;4896911;29;20188;-96
2023/03/30 01:21:39;;;;;;;586.72;134.80;;;;;;;-143.29;100.00;62188.47;4897082;29;20028;-96
2023/03/30 01:24:26;;;;;;;589.75;135.30;;;;;;;-143.29;100.00;62188.47;4896431;29;20031;-95
2023/03/30 01:26:59;;;;;;;598.35;135.13;;;;;;;-143.29;100.00;62188.47;4912681;29;20045;-95
2023/03/30 01:29:52;;;;;;;596.30;137.82;;;;;;;-143.29;100.00;62188.47;4895632;29;20063;-95
2023/03/30 01:32:40;;;;;;;588.15;135.13;;;;;;;-143.29;100.00;62188.47;4896829;29;20024;-95
2023/03/30 01:35:15;;;;;;;590.58;136.35;;;;;;;-143.29;100.00;62188.47;4912351;29;20390;-94
2023/03/30 01:38:16;;;;;;;590.83;136.35;;;;;;;-143.29;100.00;62188.47;4912626;29;20033;-95
2023/03/30 01:41:10;;;;;;;595.47;139.20;;;;;;;-143.29;100.00;62188.47;4896228;29;20040;-96
2023/03/30 01:43:44;;;;;;;593.78;138.30;;;;;;;-143.29;100.00;62188.47;4912189;29;20052;-95
2023/03/30 01:46:29;;;;;;;585.40;137.25;;;;;;;-143.29;100.00;62188.47;4896867;29;20064;-96
2023/03/30 01:49:06;;;;;;;589.00;133.05;;;;;;;-143.29;100.00;62188.47;4896752;29;20028;-95
2023/03/30 01:51:37;;;;;;;585.70;133.63;;;;;;;-143.29;100.00;62188.47;4896678;29;20369;-95
2023/03/30 01:54:18;;;;;;;585.13;132.97;;;;;;;-143.29;100.00;62188.47;4896328;29;20020;-95
2023/03/30 01:56:51;;;;;;;589.10;135.10;;;;;;;-143.29;100.00;62188.47;4896623;29;20020;-96
2023/03/30 01:59:32;;;;;;;594.65;138.25;;;;;;;-143.29;100.00;62188.47;4895869;29;20047;-95
2023/03/30 02:02:02;;;;;;;596.60;135.98;;;;;;;-143.29;100.00;62188.47;4896630;29;20036;-96
2023/03/30 02:04:32;;;;;;;585.15;133.15;;;;;;;-143.29;100.00;62188.47;4897226;29;20033;-95
2023/03/30 02:07:08;;;;;;;606.42;142.20;;;;;;;-143.29;100.00;62188.47;4896968;29;20119;-95
2023/03/30 02:09:37;;;;;;;586.65;133.88;;;;;;;-143.29;100.00;62188.47;4896785;29;20036;-96
2023/03/30 02:12:04;;;;;;;590.72;137.77;;;;;;;-143.29;100.00;62188.47;4896235;29;20032;-96
2023/03/30 02:14:32;;;;;;;589.05;135.73;;;;;;;-143.29;100.00;62188.47;4895893;29;20028;-96
2023/03/30 02:17:15;;;;;;;583.72;135.77;;;;;;;-143.29;100.00;62188.47;4896350;29;20484;-96
2023/03/30 02:19:45;;;;;;;592.53;138.18;;;;;;;-143.29;100.00;62188.47;4896795;29;20032;-95
2023/03/30 02:22:11;;;;;;;588.10;137.23;;;;;;;-143.29;100.00;62188.47;4896014;29;20029;-96
2023/03/30 02:24:37;;;;;;;591.67;135.60;;;;;;;-143.29;100.00;62188.47;4896350;29;20032;-96
2023/03/30 02:27:03;;;;;;;588.90;136.48;;;;;;;-143.29;100.00;62188.47;4896766;29;20126;-96
2023/03/30 02:29:30;;;;;;;589.33;137.07;;;;;;;-143.29;100.00;62188.47;4913320;29;20044;-94
2023/03/30 02:31:58;;;;;;;591.00;138.95;;;;;;;-143.29;100.00;62188.47;4899574;29;20041;-96
2023/03/30 02:34:42;;;;;;;589.08;136.40;;;;;;;-143.29;100.00;62188.47;4900122;29;20027;-96
2023/03/30 02:37:37;;;;;;;589.72;132.98;;;;;;;-143.29;100.00;62188.47;4915572;29;20111;-96
2023/03/30 02:40:32;;;;;;;589.42;134.02;;;;;;;-143.29;100.00;62188.47;4900351;29;20037;-96
2023/03/30 02:43:17;;;;;;;590.95;135.60;;;;;;;-143.29;100.00;62188.47;4916259;29;20488;-95
2023/03/30 02:45:51;;;;;;;587.30;137.20;;;;;;;-143.29;100.00;62188.47;4899545;29;20047;-95
2023/03/30 02:48:34;;;;;;;590.03;137.27;;;;;;;-143.29;100.00;62188.47;4900451;29;20033;-95
2023/03/30 02:51:30;;;;;;;586.78;132.63;;;;;;;-143.29;100.00;62188.47;4900364;29;20070;-95
2023/03/30 02:54:38;;;;;;;598.40;138.98;;;;;;;-143.29;100.00;62188.47;4900078;29;20028;-96
2023/03/30 02:57:15;;;;;;;589.75;134.38;;;;;;;-143.29;100.00;62188.47;4899753;29;20040;-96
2023/03/30 02:59:58;;;;;;;590.45;135.00;;;;;;;-143.29;100.00;62188.47;4914279;29;20037;-95
2023/03/30 03:02:31;;;;;;;589.50;135.68;;;;;;;-143.29;100.00;62188.47;4899507;29;20024;-95
2023/03/30 03:04:56;;;;;;;594.05;139.75;;;;;;;-143.29;100.00;62188.47;4899664;29;20169;-95
2023/03/30 03:07:24;;;;;;;592.08;136.50;;;;;;;-143.29;100.00;62188.47;4900307;29;20490;-96
2023/03/30 03:09:49;;;;;;;590.47;135.57;;;;;;;-143.29;100.00;62188.47;4899571;29;20037;-95
2023/03/30 03:12:15;;;;;;;606.92;146.35;;;;;;;-143.29;100.00;62188.47;4898671;29;20365;-95
2023/03/30 03:14:41;;;;;;;588.03;134.95;;;;;;;-143.29;100.00;62188.47;4900018;29;20498;-94
2023/03/30 03:17:08;;;;;;;592.22;136.10;;;;;;;-143.29;100.00;62188.47;4899693;29;20041;-96
2023/03/30 03:19:33;;;;;;;587.45;137.20;;;;;;;-143.29;100.00;62188.47;4899398;29;20056;-96
2023/03/30 03:21:59;;;;;;;589.13;138.02;;;;;;;-143.29;100.00;62188.47;4899617;29;20161;-94
2023/03/30 03:24:25;;;;;;;593.67;138.52;;;;;;;-143.29;100.00;62188.47;4915400;29;20033;-94
2023/03/30 03:26:50;;;;;;;588.03;135.32;;;;;;;-143.29;100.00;62188.47;4898205;29;20037;-95
2023/03/30 03:29:16;;;;;;;601.00;138.98;;;;;;;-143.29;100.00;62188.47;4898671;29;20579;-95
2023/03/30 03:31:41;;;;;;;597.40;136.13;;;;;;;-143.29;100.00;62188.47;4899433;29;20025;-96
2023/03/30 03:34:07;;;;;;;594.42;138.02;;;;;;;-143.29;100.00;62188.47;4899012;29;20036;-95
2023/03/30 03:36:32;;;;;;;589.05;136.95;;;;;;;-143.29;100.00;62188.47;4899588;29;20029;-95
2023/03/30 03:38:57;;;;;;;596.15;139.75;;;;;;;-143.29;100.00;62188.47;4899214;29;20036;-96
2023/03/30 03:41:23;;;;;;;602.75;138.82;;;;;;;-143.29;100.00;62188.47;4897424;29;20036;-95
2023/03/30 03:43:48;;;;;;;596.20;137.52;;;;;;;-143.29;100.00;62188.47;4898738;29;20020;-94
2023/03/30 03:46:14;;;;;;;596.65;135.95;;;;;;;-143.29;100.00;62188.47;4899141;29;20028;-96
2023/03/30 03:48:40;;;;;;;596.20;135.88;;;;;;;-143.29;100.00;62188.47;4898970;29;20025;-96
2023/03/30 03:51:06;;;;;;;587.78;134.07;;;;;;;-143.29;100.00;62188.47;4899082;29;20511;-95
2023/03/30 03:53:32;;;;;;;596.05;135.90;;;;;;;-143.29;100.00;62188.47;4898918;29;20032;-95
2023/03/30 03:55:57;;;;;;;592.50;134.15;;;;;;;-143.29;100.00;62188.47;4898184;29;20033;-95
2023/03/30 03:58:24;;;;;;;598.63;138.80;;;;;;;-143.29;100.00;62188.47;4898439;29;20025;-96
2023/03/30 04:00:50;;;;;;;596.30;138.70;;;;;;;-143.29;100.00;62188.47;4914035;29;20404;-96
2023/03/30 04:03:15;;;;;;;595.45;136.68;;;;;;;-143.29;100.00;62188.47;4898788;29;20024;-95
2023/03/30 04:05:41;;;;;;;587.40;134.23;;;;;;;-143.29;100.00;62188.47;4899184;29;20028;-94
2023/03/30 04:08:09;;;;;;;597.25;137.75;;;;;;;-143.29;100.00;62188.47;4899078;29;20500;-95
2023/03/30 04:10:37;;;;;;;594.05;139.23;;;;;;;-143.29;100.00;62188.47;4898752;29;20037;-96
2023/03/30 04:13:03;;;;;;;595.10;136.18;;;;;;;-143.29;100.00;62188.47;4897647;29;20024;-96
2023/03/30 04:15:28;;;;;;;600.05;140.23;;;;;;;-143.29;100.00;62188.47;4897631;29;20021;-95
2023/03/30 04:17:57;;;;;;;600.63;138.10;;;;;;;-143.29;100.00;62188.47;4899458;29;20055;-94
2023/03/30 04:20:24;;;;;;;597.63;140.30;;;;;;;-143.29;100.00;62188.47;4914326;29;20092;-95
2023/03/30 04:22:52;;;;;;;590.45;140.15;;;;;;;-143.29;100.00;62188.47;4898689;29;20024;-94
2023/03/30 04:25:20;;;;;;;595.90;137.98;;;;;;;-143.29;100.00;62188.47;4898565;29;20056;-95
2023/03/30 04:27:50;;;;;;;594.88;136.80;;;;;;;-143.29;100.00;62188.47;4897739;29;20084;-95
2023/03/30 04:30:16;;;;;;;591.47;138.10;;;;;;;-143.29;100.00;62188.47;4897740;29;20032;-96
2023/03/30 04:32:43;;;;;;;590.67;137.25;;;;;;;-143.29;100.00;62188.47;4897575;29;20035;-94
2023/03/30 04:35:09;;;;;;;592.13;133.95;;;;;;;-143.29;100.00;62188.47;4897446;29;20056;-94
2023/03/30 04:37:37;;;;;;;588.45;136.70;;;;;;;-143.29;100.00;62188.47;4897907;29;20096;-96
2023/03/30 04:40:06;;;;;;;588.38;136.95;;;;;;;-143.29;100.00;62188.47;4898240;29;20123;-96
2023/03/30 04:42:36;;;;;;;590.42;136.38;;;;;;;-143.29;100.00;62188.47;4897412;29;20409;-94
2023/03/30 04:45:06;;;;;;;586.63;135.77;;;;;;;-143.29;100.00;62188.47;4897873;29;20483;-95
2023/03/30 04:47:33;;;;;;;598.75;138.40;;;;;;;-143.29;100.00;62188.47;4897208;29;20036;-94
2023/03/30 04:50:00;;;;;;;600.67;134.38;;;;;;;-143.29;100.00;62188.47;4913386;29;20044;-94
2023/03/30 04:52:25;;;;;;;599.10;140.55;;;;;;;-143.29;100.00;62188.47;4897504;29;20029;-94
2023/03/30 04:54:51;;;;;;;604.30;141.10;;;;;;;-143.29;100.00;62188.47;4897535;29;20439;-94
2023/03/30 04:57:16;;;;;;;593.55;138.77;;;;;;;-143.29;100.00;62188.47;4897446;29;20406;-94
2023/03/30 04:59:43;;;;;;;593.05;134.43;;;;;;;-143.29;100.00;62188.47;4896632;29;20021;-96
2023/03/30 05:02:10;;;;;;;599.33;138.65;;;;;;;-143.29;100.00;62188.47;4896761;29;20029;-96
2023/03/30 05:04:36;;;;;;;590.05;137.30;;;;;;;-143.29;100.00;62188.47;4897538;29;20028;-94
2023/03/30 05:07:02;;;;;;;591.97;137.10;;;;;;;-143.29;100.00;62188.47;4897727;29;20035;-94
2023/03/30 05:09:28;;;;;;;601.97;139.07;;;;;;;-143.29;100.00;62188.47;4898285;29;20033;-95
2023/03/30 05:11:53;;;;;;;595.40;138.40;;;;;;;-143.29;100.00;62188.47;4896655;29;20120;-94
2023/03/30 05:14:19;;;;;;;593.35;137.93;;;;;;;-143.29;100.00;62188.47;4897180;29;20479;-95
2023/03/30 05:16:44;;;;;;;593.72;137.07;;;;;;;-143.29;100.00;62188.47;4896525;29;20033;-94
2023/03/30 05:19:10;;;;;;;587.80;134.88;;;;;;;-143.29;100.00;62188.47;4897334;29;20062;-94
2023/03/30 05:21:36;;;;;;;591.00;136.45;;;;;;;-143.29;100.00;62188.47;4897433;29;20055;-94
2023/03/30 05:24:02;;;;;;;588.97;137.25;;;;;;;-143.29;100.00;62188.47;4897367;29;20036;-94
2023/03/30 05:26:27;;;;;;;614.30;148.02;;;;;;;-143.29;100.00;62188.47;4896832;29;20056;-94
2023/03/30 05:28:53;;;;;;;584.45;133.70;;;;;;;-143.29;100.00;62188.47;4896965;29;20129;-94
2023/03/30 05:31:19;;;;;;;598.30;139.27;;;;;;;-143.29;100.00;62188.47;4896305;29;20032;-94
2023/03/30 05:33:46;;;;;;;586.90;134.52;;;;;;;-143.29;100.00;62188.47;4896840;29;20032;-94
2023/03/30 05:36:12;;;;;;;596.00;140.80;;;;;;;-143.29;100.00;62188.47;4896662;29;20395;-94
2023/03/30 05:38:37;;;;;;;592.67;134.48;;;;;;;-143.29;100.00;62188.47;4896512;29;20480;-93
2023/03/30 05:41:04;;;;;;;591.15;134.32;;;;;;;-143.29;100.00;62188.47;4897107;29;20040;-93
2023/03/30 05:43:30;;;;;;;602.47;138.45;;;;;;;-143.29;100.00;62188.47;4896077;29;20025;-95
2023/03/30 05:45:55;;;;;;;594.20;137.20;;;;;;;-143.29;100.00;62188.47;4894434;29;20059;-95
2023/03/30 05:48:21;;;;;;;597.42;136.52;;;;;;;-143.29;100.00;62188.47;4895639;29;20060;-93
2023/03/30 05:50:47;;;;;;;598.55;137.57;;;;;;;-143.29;100.00;62188.47;4896716;29;20033;-93
2023/03/30 05:53:13;;;;;;;594.60;136.32;;;;;;;-143.29;100.00;62188.47;4897869;29;20035;-95
2023/03/30 05:55:38;;;;;;;594.70;136.70;;;;;;;-143.29;100.00;62188.47;4897097;29;20123;-94
2023/03/30 05:58:03;;;;;;;609.85;144.80;;;;;;;-143.29;100.00;62188.47;4896956;29;20484;-93
2023/03/30 06:00:32;;;;;;;616.38;141.45;;;;;;;-143.29;100.00;62188.47;4896308;29;20020;-94
2023/03/30 06:02:58;;;;;;;611.90;141.45;;;;;;;-143.29;100.00;62188.47;4905181;29;20384;-94
2023/03/30 06:05:24;;;;;;;616.83;141.98;;;;;;;-143.29;100.00;62188.47;4915452;29;20028;-96
2023/03/30 06:07:49;;;;;;;604.30;137.68;;;;;;;-143.29;100.00;62188.47;4908497;29;20039;-94
2023/03/30 06:10:15;;;;;;;608.58;139.25;;;;;;;-143.29;100.00;62188.47;4896417;29;20039;-94
2023/03/30 06:12:40;;;;;;;604.67;138.23;;;;;;;-143.29;100.00;62188.47;4895994;29;20043;-93
2023/03/30 06:15:07;;;;;;;625.22;145.07;;;;;;;-143.29;100.00;62188.47;4895288;29;20024;-93
2023/03/30 06:17:34;;;;;;;606.72;139.18;;;;;;;-143.29;100.00;62188.47;4896232;29;20121;-95
2023/03/30 06:20:00;;;;;;;615.33;141.10;;;;;;;-143.29;100.00;62188.47;4896549;29;20472;-96
2023/03/30 06:22:25;;;;;;;608.92;141.32;;;;;;;-143.29;100.00;62188.47;4896530;29;20085;-94
2023/03/30 06:24:51;;;;;;;610.10;138.77;;;;;;;-143.29;100.00;62188.47;4896674;29;20031;-94
2023/03/30 06:27:16;;;;;;;608.90;138.05;;;;;;;-143.29;100.00;62188.47;4896801;29;20076;-93
2023/03/30 06:29:42;;;;;;;598.75;138.25;;;;;;;-143.29;100.00;62188.47;4896273;29;20442;-93
2023/03/30 06:32:07;;;;;;;614.97;139.20;;;;;;;-143.29;100.00;62188.47;4896355;29;20028;-94
2023/03/30 06:34:33;;;;;;;603.30;139.60;;;;;;;-143.29;100.00;62188.47;4896359;29;20486;-94
2023/03/30 06:36:58;;;;;;;605.72;138.73;;;;;;;-143.29;100.00;62188.47;4896049;29;20067;-95
2023/03/30 06:39:24;;;;;;;599.58;136.98;;;;;;;-143.29;100.00;62188.47;4896268;29;20103;-95
2023/03/30 06:41:49;;;;;;;612.05;135.88;;;;;;;-143.29;100.00;62188.47;4896560;29;20025;-95
2023/03/30 06:44:15;;;;;;;601.45;139.32;;;;;;;-143.29;100.00;62188.47;4896596;29;20432;-94
2023/03/30 06:46:41;;;;;;;606.63;138.52;;;;;;;-143.29;100.00;62188.47;4895429;29;20036;-94
2023/03/30 06:49:07;;;;;;;607.13;139.48;;;;;;;-143.29;100.00;62188.47;4895999;29;20484;-94
2023/03/30 06:51:34;;;;;;;616.53;141.05;;;;;;;-143.29;100.00;62188.47;4895843;29;20031;-93
2023/03/30 06:54:00;;;;;;;622.30;148.02;;;;;;;-143.29;100.00;62188.47;4896193;29;20031;-93
2023/03/30 06:56:26;;;;;;;611.30;141.32;;;;;;;-143.29;100.00;62188.47;4895404;29;20024;-95
2023/03/30 06:58:51;;;;;;;612.25;139.82;;;;;;;-143.29;100.00;62188.47;4896930;29;20037;-95
2023/03/30 07:01:17;;;;;;;606.65;138.82;;;;;;;-143.29;100.00;62188.47;4895166;29;20032;-93
2023/03/30 07:03:46;;;;;;;605.08;138.18;;;;;;;-143.29;100.00;62188.47;4896116;29;20028;-93
2023/03/30 07:06:12;;;;;;;605.25;136.55;;;;;;;-143.29;100.00;62188.47;4911952;29;20454;-94
2023/03/30 07:08:39;;;;;;;603.22;140.18;;;;;;;-143.29;100.00;62188.47;4895846;29;20064;-93
2023/03/30 07:11:05;;;;;;;617.80;142.27;;;;;;;-143.29;100.00;62188.47;4894739;29;20067;-94
2023/03/30 07:13:32;;;;;;;612.70;145.40;;;;;;;-143.29;100.00;62188.47;4910678;29;20460;-95
2023/03/30 07:15:57;;;;;;;614.95;144.65;;;;;;;-143.29;100.00;62188.47;4897032;29;20031;-94
2023/03/30 07:18:23;;;;;;;598.33;141.77;;;;;;;-143.29;100.00;62188.47;4899302;29;20033;-94
2023/03/30 07:20:48;;;;;;;605.38;138.60;;;;;;;-143.29;100.00;62188.47;4900402;29;20271;-94
2023/03/30 07:23:16;;;;;;;606.40;139.90;;;;;;;-143.29;100.00;62188.47;4898705;29;20029;-95
2023/03/30 07:25:43;;;;;;;614.50;144.93;;;;;;;-143.29;100.00;62188.47;4898036;29;20047;-93
2023/03/30 07:28:09;;;;;;;611.20;143.45;;;;;;;-143.29;100.00;62188.47;4899331;29;20024;-94
2023/03/30 07:30:35;;;;;;;610.47;146.57;;;;;;;-143.29;100.00;62188.47;4898386;29;20029;-94
2023/03/30 07:33:01;;;;;;;622.30;152.52;;;;;;;-143.29;100.00;62188.47;4898757;29;20033;-94
2023/03/30 07:35:26;;;;;;;611.65;145.25;;;;;;;-143.29;100.00;62188.47;4898268;29;20039;-94
2023/03/30 07:37:52;;;;;;;613.30;148.40;;;;;;;-143.29;100.00;62188.47;4899073;29;20025;-94
2023/03/30 07:40:20;;;;;;;621.17;149.60;;;;;;;-143.29;100.00;62188.47;4914874;29;20031;-95
2023/03/30 07:42:46;;;;;;;608.72;144.07;;;;;;;-143.29;100.00;62188.47;4898726;29;20085;-93
2023/03/30 07:45:13;;;;;;;614.72;146.75;;;;;;;-143.29;100.00;62188.47;4900150;29;20497;-94
2023/03/30 07:47:39;;;;;;;623.90;146.02;;;;;;;-143.29;100.00;62188.47;4896987;29;20032;-94
2023/03/30 07:50:06;;;;;;;616.40;148.60;;;;;;;-143.29;100.00;62188.47;4894804;29;20032;-93
2023/03/30 07:52:31;;;;;;;621.70;149.98;;;;;;;-143.29;100.00;62188.47;4907918;29;20067;-94
2023/03/30 07:54:57;;;;;;;613.25;151.38;;;;;;;-143.29;100.00;62188.47;4905010;29;20024;-95
2023/03/30 07:57:22;;;;;;;607.63;144.07;;;;;;;-143.29;100.00;62188.47;4911997;29;20036;-96
2023/03/30 07:59:48;;;;;;;616.75;149.13;;;;;;;-143.29;100.00;62188.47;4911020;29;20036;-94
2023/03/30 08:02:14;;;;;;;612.67;147.55;;;;;;;-143.29;100.00;62188.47;4897585;29;20087;-94
2023/03/30 08:04:40;;;;;;;609.83;148.05;;;;;;;-143.29;100.00;62188.47;4913585;29;20036;-94
2023/03/30 08:07:06;;;;;;;612.65;146.70;;;;;;;-143.29;100.00;62188.47;4899467;29;20033;-95
2023/03/30 08:09:32;;;;;;;620.13;145.65;;;;;;;-143.29;100.00;62188.47;4914537;29;20036;-94
2023/03/30 08:11:58;;;;;;;621.60;149.73;;;;;;;-143.29;100.00;62188.47;4913883;29;20024;-94
2023/03/30 08:14:26;;;;;;;623.67;148.18;;;;;;;-143.29;100.00;62188.47;4897687;29;20100;-95
2023/03/30 08:16:52;;;;;;;612.35;150.57;;;;;;;-143.29;100.00;62188.47;4898564;29;20119;-95
2023/03/30 08:19:18;;;;;;;604.67;145.95;;;;;;;-143.29;100.00;62188.47;4898415;29;20032;-95
2023/03/30 08:21:43;;;;;;;617.67;156.05;;;;;;;-143.29;100.00;62188.47;4898320;29;20032;-94
2023/03/30 08:24:09;;;;;;;616.45;155.90;;;;;;;-143.29;100.00;62188.47;4898208;29;20051;-94
2023/03/30 08:26:35;;;;;;;627.03;162.57;;;;;;;-143.29;100.00;62188.47;4896925;29;20076;-95
2023/03/30 08:29:01;;;;;;;626.05;167.40;;;;;;;-143.29;100.00;62188.47;4898415;29;20176;-95
2023/03/30 08:31:26;;;;;;;634.25;176.07;;;;;;;-143.29;100.00;62188.47;4898711;29;20115;-95
2023/03/30 08:33:52;;;;;;;625.20;170.35;;;;;;;-143.29;100.00;62188.47;4899389;29;20029;-95
2023/03/30 08:36:19;;;;;;;622.25;184.73;;;;;;;-143.29;100.00;62188.47;4899551;29;20239;-95
2023/03/30 08:38:45;;;;;;;636.53;196.30;;;;;;;-143.29;100.00;62188.47;4898836;29;20040;-95
2023/03/30 08:41:28;;;;;;;649.20;210.65;;;;;;;-143.29;100.00;62188.47;4896200;29;20036;-96
2023/03/30 08:44:10;;;;;;;656.28;230.88;;;;;;;-143.29;100.00;62188.47;4896749;29;20029;-96
2023/03/30 08:46:37;;;;;;;646.45;231.77;;;;;;;-143.29;100.00;62188.47;4895861;29;20029;-96
2023/03/30 08:49:08;;;;;;;656.38;251.05;;;;;;;-143.29;100.00;62188.47;4879708;29;20036;-96
2023/03/30 08:51:34;;;;;;;653.67;242.98;;;;;;;-143.29;100.00;62188.47;4895686;29;20026;-95
2023/03/30 08:54:15;;;;;;;649.60;234.23;;;;;;;-143.29;100.00;62188.47;4896008;29;20233;-96
2023/03/30 08:57:05;;;;;;;647.43;232.33;;;;;;;-143.29;100.00;62188.47;4883948;29;20040;-95
2023/03/30 08:59:52;;;;;;;648.08;225.65;;;;;;;-143.29;100.00;62188.47;4906382;29;20064;-95
2023/03/30 09:02:43;;;;;;;651.90;231.68;;;;;;;-143.29;100.00;62188.47;4901485;29;20480;-95
2023/03/30 09:05:28;;;;;;;658.15;220.43;;;;;;;-143.29;100.00;62188.47;4916693;29;20033;-96
2023/03/30 09:08:28;;;;;;;644.45;217.82;;;;;;;-143.29;100.00;62188.47;4915031;29;20105;-95
2023/03/30 09:10:59;;;;;;;645.22;213.55;;;;;;;-143.29;100.00;62188.47;4887256;29;20043;-94
2023/03/30 09:13:32;;;;;;;652.08;211.65;;;;;;;-143.29;100.00;62188.47;4912890;29;20031;-96
2023/03/30 09:16:03;;;;;;;643.20;203.65;;;;;;;-143.29;100.00;62188.47;4897558;29;20036;-95
2023/03/30 09:18:32;;;;;;;641.72;204.02;;;;;;;-143.29;100.00;62188.47;4897865;29;20514;-96
2023/03/30 09:21:00;;;;;;;630.55;198.13;;;;;;;-143.29;100.00;62188.47;4897211;29;20487;-95
2023/03/30 09:23:30;;;;;;;630.60;198.80;;;;;;;-143.29;100.00;62188.47;4898037;29;20040;-96
2023/03/30 09:26:01;;;;;;;629.37;196.53;;;;;;;-143.29;100.00;62188.47;4897624;29;20119;-95
2023/03/30 09:28:30;;;;;;;633.95;186.45;;;;;;;-143.29;100.00;62188.47;4897779;29;20272;-96
2023/03/30 09:31:16;;;;;;;624.45;183.93;;;;;;;-143.29;100.00;62188.47;4897526;29;20494;-95
2023/03/30 09:33:55;;;;;;;622.70;171.93;;;;;;;-143.29;100.00;62188.47;4897463;29;20622;-95
2023/03/30 09:36:30;;;;;;;618.63;172.30;;;;;;;-143.29;100.00;62188.47;4896557;29;20041;-95
2023/03/30 09:38:56;;;;;;;616.75;176.07;;;;;;;-143.29;100.00;62188.47;4893029;29;20057;-95
2023/03/30 09:42:01;;;;;;;616.42;172.75;;;;;;;-143.29;100.00;62188.47;4894234;29;20040;-94
2023/03/30 09:44:35;;;;;;;617.40;176.00;;;;;;;-143.29;100.00;62188.47;4878664;29;20047;-96
2023/03/30 09:47:02;;;;;;;615.05;173.15;;;;;;;-143.29;100.00;62188.47;4894089;29;20039;-96
2023/03/30 09:49:28;;;;;;;632.88;191.75;;;;;;;-143.29;100.00;62188.47;4878484;29;20060;-95
2023/03/30 09:52:06;;;;;;;643.65;208.68;;;;;;;-143.29;100.00;62188.47;4896703;29;20060;-96
2023/03/30 09:54:40;;;;;;;652.72;235.13;;;;;;;-143.29;100.00;62188.47;4913834;29;20498;-96
2023/03/30 09:57:23;;;;;;;664.22;249.77;;;;;;;-143.29;100.00;62188.47;4912710;29;20029;-96
2023/03/30 09:59:54;;;;;;;663.78;267.33;;;;;;;-143.29;100.00;62188.47;4899103;29;20032;-96
2023/03/30 10:02:22;;;;;;;664.03;284.30;;;;;;;-143.29;100.00;62188.47;4898606;29;20040;-96
2023/03/30 10:04:51;;;;;;;659.92;289.27;;;;;;;-143.29;100.00;62188.47;4912721;29;20029;-96
2023/03/30 10:07:40;;;;;;;667.22;297.25;;;;;;;-143.29;100.00;62188.47;4896406;29;20037;-96
2023/03/30 10:10:19;;;;;;;665.83;297.85;;;;;;;-143.29;100.00;62188.47;4896958;29;20032;-96
2023/03/30 10:12:48;;;;;;;672.17;317.88;;;;;;;-143.29;100.00;62188.47;4897394;29;20029;-96
2023/03/30 10:15:19;;;;;;;684.17;334.55;;;;;;;-143.29;100.00;62188.47;4897277;29;20479;-96
2023/03/30 10:17:47;;;;;;;687.95;332.05;;;;;;;-143.29;100.00;62188.47;4897027;29;20036;-96
2023/03/30 10:20:20;;;;;;;684.08;343.70;;;;;;;-143.29;100.00;62188.47;4896706;29;20028;-96
2023/03/30 10:22:53;;;;;;;683.67;360.67;;;;;;;-143.29;100.00;62188.47;4895852;29;20047;-96
2023/03/30 10:25:26;;;;;;;682.45;343.98;;;;;;;-143.29;100.00;62188.47;4897131;29;20020;-96
2023/03/30 10:27:57;;;;;;;688.55;358.65;;;;;;;-143.29;100.00;62188.47;4896942;29;20600;-95
2023/03/30 10:30:25;;;;;;;679.30;322.60;;;;;;;-143.29;100.00;62188.47;4896506;29;20092;-96
2023/03/30 10:32:53;;;;;;;678.20;318.15;;;;;;;-143.29;100.00;62188.47;4896793;29;20538;-96
2023/03/30 10:35:36;;;;;;;666.25;291.13;;;;;;;-143.29;100.00;62188.47;4912497;29;20112;-95
2023/03/30 10:38:04;;;;;;;656.13;263.05;;;;;;;-143.29;100.00;62188.47;4895117;29;20115;-95
2023/03/30 10:40:40;;;;;;;654.67;251.63;;;;;;;-143.29;100.00;62188.47;4896862;29;20027;-96
2023/03/30 10:43:16;;;;;;;645.92;246.60;;;;;;;-143.29;100.00;62188.47;4911442;29;20040;-96
2023/03/30 10:45:54;;;;;;;645.97;236.43;;;;;;;-143.29;100.00;62188.47;4896384;29;20021;-96
2023/03/30 10:48:47;;;;;;;642.05;221.65;;;;;;;-143.29;100.00;62188.47;4896704;29;20029;-96
2023/03/30 10:51:37;;;;;;;633.90;220.20;;;;;;;-143.29;100.00;62188.47;4900218;29;20036;-96
2023/03/30 10:54:12;;;;;;;638.42;217.60;;;;;;;-143.29;100.00;62188.47;4914020;29;20167;-96